sensor_id;sensor_type;location;lat;lon;timestamp;P1;durP1;ratioP1;P2;durP2;ratioP2
44145;SDS011;29809;52.432;4.780;2023-02-04T00:00:12;9.32;;;2.83;;
44145;SDS011;29809;52.432;4.780;2023-02-04T00:02:39;6.20;;;2.65;;
44145;SDS011;29809;52.432;4.780;2023-02-04T00:05:04;8.02;;;2.67;;
44145;SDS011;29809;52.432;4.780;2023-02-04T00:07:29;9.23;;;2.50;;
44145;SDS011;29809;52.432;4.780;2023-02-04T00:09:54;7.65;;;2.72;;
44145;SDS011;29809;52.432;4.780;2023-02-04T00:12:20;9.55;;;2.72;;
44145;SDS011;29809;52.432;4.780;2023-02-04T00:14:45;10.90;;;2.85;;
44145;SDS011;29809;52.432;4.780;2023-02-04T00:17:10;7.40;;;2.55;;
44145;SDS011;29809;52.432;4.780;2023-02-04T00:19:37;6.18;;;2.30;;
44145;SDS011;29809;52.432;4.780;2023-02-04T00:22:02;5.72;;;3.28;;
44145;SDS011;29809;52.432;4.780;2023-02-04T00:24:28;6.40;;;2.58;;
44145;SDS011;29809;52.432;4.780;2023-02-04T00:26:54;7.95;;;3.08;;
44145;SDS011;29809;52.432;4.780;2023-02-04T00:29:19;6.30;;;2.22;;
44145;SDS011;29809;52.432;4.780;2023-02-04T00:31:44;7.55;;;2.78;;
44145;SDS011;29809;52.432;4.780;2023-02-04T00:34:09;5.40;;;2.40;;
44145;SDS011;29809;52.432;4.780;2023-02-04T00:36:35;9.20;;;2.72;;
44145;SDS011;29809;52.432;4.780;2023-02-04T00:39:00;8.18;;;3.20;;
44145;SDS011;29809;52.432;4.780;2023-02-04T00:41:25;6.50;;;2.65;;
44145;SDS011;29809;52.432;4.780;2023-02-04T00:43:50;8.25;;;2.97;;
44145;SDS011;29809;52.432;4.780;2023-02-04T00:46:16;6.57;;;2.78;;
44145;SDS011;29809;52.432;4.780;2023-02-04T00:48:41;5.78;;;2.33;;
44145;SDS011;29809;52.432;4.780;2023-02-04T00:51:06;7.50;;;2.42;;
44145;SDS011;29809;52.432;4.780;2023-02-04T00:53:31;5.75;;;2.53;;
44145;SDS011;29809;52.432;4.780;2023-02-04T00:55:57;5.28;;;2.53;;
44145;SDS011;29809;52.432;4.780;2023-02-04T00:58:22;8.13;;;2.80;;
44145;SDS011;29809;52.432;4.780;2023-02-04T01:00:47;6.57;;;2.80;;
44145;SDS011;29809;52.432;4.780;2023-02-04T01:03:12;7.25;;;2.67;;
44145;SDS011;29809;52.432;4.780;2023-02-04T01:05:38;7.95;;;2.85;;
44145;SDS011;29809;52.432;4.780;2023-02-04T01:08:03;6.32;;;2.22;;
44145;SDS011;29809;52.432;4.780;2023-02-04T01:10:28;8.00;;;2.70;;
44145;SDS011;29809;52.432;4.780;2023-02-04T01:12:53;6.32;;;2.47;;
44145;SDS011;29809;52.432;4.780;2023-02-04T01:15:19;5.88;;;2.20;;
44145;SDS011;29809;52.432;4.780;2023-02-04T01:17:44;5.70;;;2.83;;
44145;SDS011;29809;52.432;4.780;2023-02-04T01:20:09;6.65;;;3.10;;
44145;SDS011;29809;52.432;4.780;2023-02-04T01:22:35;4.53;;;2.13;;
44145;SDS011;29809;52.432;4.780;2023-02-04T01:25:00;4.78;;;2.10;;
44145;SDS011;29809;52.432;4.780;2023-02-04T01:27:25;5.97;;;2.17;;
44145;SDS011;29809;52.432;4.780;2023-02-04T01:29:50;5.47;;;2.22;;
44145;SDS011;29809;52.432;4.780;2023-02-04T01:32:16;4.03;;;2.20;;
44145;SDS011;29809;52.432;4.780;2023-02-04T01:34:41;4.70;;;2.20;;
44145;SDS011;29809;52.432;4.780;2023-02-04T01:37:06;5.78;;;2.28;;
44145;SDS011;29809;52.432;4.780;2023-02-04T01:39:31;4.70;;;1.98;;
44145;SDS011;29809;52.432;4.780;2023-02-04T01:41:58;6.75;;;2.03;;
44145;SDS011;29809;52.432;4.780;2023-02-04T01:44:24;7.50;;;2.67;;
44145;SDS011;29809;52.432;4.780;2023-02-04T01:46:50;5.60;;;2.08;;
44145;SDS011;29809;52.432;4.780;2023-02-04T01:49:15;5.78;;;2.28;;
44145;SDS011;29809;52.432;4.780;2023-02-04T01:51:41;6.53;;;2.67;;
44145;SDS011;29809;52.432;4.780;2023-02-04T01:54:08;5.57;;;2.40;;
44145;SDS011;29809;52.432;4.780;2023-02-04T01:56:34;6.60;;;2.20;;
44145;SDS011;29809;52.432;4.780;2023-02-04T01:58:59;5.50;;;2.00;;
44145;SDS011;29809;52.432;4.780;2023-02-04T02:01:33;4.35;;;2.28;;
44145;SDS011;29809;52.432;4.780;2023-02-04T02:03:59;5.93;;;2.80;;
44145;SDS011;29809;52.432;4.780;2023-02-04T02:06:24;6.40;;;2.53;;
44145;SDS011;29809;52.432;4.780;2023-02-04T02:08:49;6.93;;;2.60;;
44145;SDS011;29809;52.432;4.780;2023-02-04T02:11:14;6.65;;;2.20;;
44145;SDS011;29809;52.432;4.780;2023-02-04T02:13:40;6.22;;;2.10;;
44145;SDS011;29809;52.432;4.780;2023-02-04T02:16:05;4.80;;;1.88;;
44145;SDS011;29809;52.432;4.780;2023-02-04T02:18:30;4.82;;;2.20;;
44145;SDS011;29809;52.432;4.780;2023-02-04T02:20:56;4.07;;;1.85;;
44145;SDS011;29809;52.432;4.780;2023-02-04T02:26:08;5.88;;;2.20;;
44145;SDS011;29809;52.432;4.780;2023-02-04T02:28:33;3.70;;;1.60;;
44145;SDS011;29809;52.432;4.780;2023-02-04T02:30:59;4.68;;;1.83;;
44145;SDS011;29809;52.432;4.780;2023-02-04T02:33:24;4.00;;;2.00;;
44145;SDS011;29809;52.432;4.780;2023-02-04T02:35:50;5.60;;;2.00;;
44145;SDS011;29809;52.432;4.780;2023-02-04T02:38:16;3.40;;;1.70;;
44145;SDS011;29809;52.432;4.780;2023-02-04T02:40:42;5.95;;;1.90;;
44145;SDS011;29809;52.432;4.780;2023-02-04T02:43:08;4.57;;;2.00;;
44145;SDS011;29809;52.432;4.780;2023-02-04T02:45:34;4.55;;;2.47;;
44145;SDS011;29809;52.432;4.780;2023-02-04T02:48:00;4.97;;;1.90;;
44145;SDS011;29809;52.432;4.780;2023-02-04T02:50:28;6.57;;;2.28;;
44145;SDS011;29809;52.432;4.780;2023-02-04T02:52:53;4.70;;;1.70;;
44145;SDS011;29809;52.432;4.780;2023-02-04T02:55:20;3.30;;;1.73;;
44145;SDS011;29809;52.432;4.780;2023-02-04T02:57:46;4.40;;;1.90;;
44145;SDS011;29809;52.432;4.780;2023-02-04T03:00:19;5.50;;;2.00;;
44145;SDS011;29809;52.432;4.780;2023-02-04T03:02:46;5.07;;;2.17;;
44145;SDS011;29809;52.432;4.780;2023-02-04T03:05:13;5.80;;;1.85;;
44145;SDS011;29809;52.432;4.780;2023-02-04T03:07:38;3.53;;;1.73;;
44145;SDS011;29809;52.432;4.780;2023-02-04T03:10:04;3.55;;;1.50;;
44145;SDS011;29809;52.432;4.780;2023-02-04T03:12:29;4.82;;;2.20;;
44145;SDS011;29809;52.432;4.780;2023-02-04T03:14:54;3.17;;;1.63;;
44145;SDS011;29809;52.432;4.780;2023-02-04T03:17:20;3.58;;;2.00;;
44145;SDS011;29809;52.432;4.780;2023-02-04T03:19:46;4.05;;;2.03;;
44145;SDS011;29809;52.432;4.780;2023-02-04T03:22:12;5.50;;;2.00;;
44145;SDS011;29809;52.432;4.780;2023-02-04T03:24:37;2.95;;;1.45;;
44145;SDS011;29809;52.432;4.780;2023-02-04T03:27:02;4.05;;;2.05;;
44145;SDS011;29809;52.432;4.780;2023-02-04T03:29:28;2.63;;;1.40;;
44145;SDS011;29809;52.432;4.780;2023-02-04T03:31:53;3.22;;;1.52;;
44145;SDS011;29809;52.432;4.780;2023-02-04T03:34:20;3.83;;;1.45;;
44145;SDS011;29809;52.432;4.780;2023-02-04T03:36:45;5.55;;;1.60;;
44145;SDS011;29809;52.432;4.780;2023-02-04T03:39:10;4.57;;;2.00;;
44145;SDS011;29809;52.432;4.780;2023-02-04T03:41:35;4.13;;;1.55;;
44145;SDS011;29809;52.432;4.780;2023-02-04T03:44:00;4.60;;;1.90;;
44145;SDS011;29809;52.432;4.780;2023-02-04T03:46:26;4.70;;;1.73;;
44145;SDS011;29809;52.432;4.780;2023-02-04T03:48:52;2.05;;;1.30;;
44145;SDS011;29809;52.432;4.780;2023-02-04T03:51:17;3.50;;;1.65;;
44145;SDS011;29809;52.432;4.780;2023-02-04T03:53:42;3.28;;;1.70;;
44145;SDS011;29809;52.432;4.780;2023-02-04T03:56:08;6.82;;;1.77;;
44145;SDS011;29809;52.432;4.780;2023-02-04T03:58:34;5.55;;;1.70;;
44145;SDS011;29809;52.432;4.780;2023-02-04T04:00:59;3.38;;;1.80;;
44145;SDS011;29809;52.432;4.780;2023-02-04T04:03:24;4.55;;;1.70;;
44145;SDS011;29809;52.432;4.780;2023-02-04T04:05:50;3.13;;;1.55;;
44145;SDS011;29809;52.432;4.780;2023-02-04T04:08:15;3.58;;;1.90;;
44145;SDS011;29809;52.432;4.780;2023-02-04T04:10:40;3.47;;;1.52;;
44145;SDS011;29809;52.432;4.780;2023-02-04T04:13:05;4.15;;;1.55;;
44145;SDS011;29809;52.432;4.780;2023-02-04T04:15:31;3.70;;;1.67;;
44145;SDS011;29809;52.432;4.780;2023-02-04T04:17:56;6.85;;;2.25;;
44145;SDS011;29809;52.432;4.780;2023-02-04T04:20:21;2.92;;;1.52;;
44145;SDS011;29809;52.432;4.780;2023-02-04T04:22:49;3.95;;;1.75;;
44145;SDS011;29809;52.432;4.780;2023-02-04T04:25:14;4.25;;;1.73;;
44145;SDS011;29809;52.432;4.780;2023-02-04T04:27:40;3.67;;;1.52;;
44145;SDS011;29809;52.432;4.780;2023-02-04T04:30:05;3.97;;;1.38;;
44145;SDS011;29809;52.432;4.780;2023-02-04T04:32:31;2.47;;;1.65;;
44145;SDS011;29809;52.432;4.780;2023-02-04T04:34:56;3.45;;;1.75;;
44145;SDS011;29809;52.432;4.780;2023-02-04T04:37:21;2.80;;;1.02;;
44145;SDS011;29809;52.432;4.780;2023-02-04T04:39:46;3.33;;;1.67;;
44145;SDS011;29809;52.432;4.780;2023-02-04T04:42:12;3.40;;;1.63;;
44145;SDS011;29809;52.432;4.780;2023-02-04T04:44:37;3.28;;;1.30;;
44145;SDS011;29809;52.432;4.780;2023-02-04T04:47:02;3.72;;;1.20;;
44145;SDS011;29809;52.432;4.780;2023-02-04T04:49:27;3.05;;;1.55;;
44145;SDS011;29809;52.432;4.780;2023-02-04T04:51:53;3.15;;;1.50;;
44145;SDS011;29809;52.432;4.780;2023-02-04T04:54:18;2.60;;;1.52;;
44145;SDS011;29809;52.432;4.780;2023-02-04T04:56:43;2.67;;;1.83;;
44145;SDS011;29809;52.432;4.780;2023-02-04T04:59:08;3.55;;;1.40;;
44145;SDS011;29809;52.432;4.780;2023-02-04T05:01:34;2.55;;;1.30;;
44145;SDS011;29809;52.432;4.780;2023-02-04T05:03:59;4.13;;;1.55;;
44145;SDS011;29809;52.432;4.780;2023-02-04T05:06:24;2.80;;;1.58;;
44145;SDS011;29809;52.432;4.780;2023-02-04T05:08:50;3.92;;;1.50;;
44145;SDS011;29809;52.432;4.780;2023-02-04T05:11:15;5.00;;;1.70;;
44145;SDS011;29809;52.432;4.780;2023-02-04T05:13:40;6.13;;;1.80;;
44145;SDS011;29809;52.432;4.780;2023-02-04T05:16:06;5.03;;;1.77;;
44145;SDS011;29809;52.432;4.780;2023-02-04T05:18:31;3.10;;;1.60;;
44145;SDS011;29809;52.432;4.780;2023-02-04T05:20:56;5.40;;;1.67;;
44145;SDS011;29809;52.432;4.780;2023-02-04T05:23:22;4.03;;;1.73;;
44145;SDS011;29809;52.432;4.780;2023-02-04T05:25:47;4.00;;;1.63;;
44145;SDS011;29809;52.432;4.780;2023-02-04T05:28:12;4.97;;;1.95;;
44145;SDS011;29809;52.432;4.780;2023-02-04T05:30:37;3.45;;;1.80;;
44145;SDS011;29809;52.432;4.780;2023-02-04T05:33:03;4.03;;;1.75;;
44145;SDS011;29809;52.432;4.780;2023-02-04T05:35:28;4.30;;;1.98;;
44145;SDS011;29809;52.432;4.780;2023-02-04T05:37:53;4.70;;;1.67;;
44145;SDS011;29809;52.432;4.780;2023-02-04T05:40:18;3.40;;;1.42;;
44145;SDS011;29809;52.432;4.780;2023-02-04T05:42:44;3.73;;;1.67;;
44145;SDS011;29809;52.432;4.780;2023-02-04T05:45:13;3.58;;;1.50;;
44145;SDS011;29809;52.432;4.780;2023-02-04T05:47:39;4.88;;;1.75;;
44145;SDS011;29809;52.432;4.780;2023-02-04T05:50:04;3.35;;;1.38;;
44145;SDS011;29809;52.432;4.780;2023-02-04T05:52:30;3.22;;;1.40;;
44145;SDS011;29809;52.432;4.780;2023-02-04T05:54:55;4.15;;;1.50;;
44145;SDS011;29809;52.432;4.780;2023-02-04T05:57:20;3.67;;;1.50;;
44145;SDS011;29809;52.432;4.780;2023-02-04T05:59:46;4.55;;;1.90;;
44145;SDS011;29809;52.432;4.780;2023-02-04T06:02:11;3.15;;;1.50;;
44145;SDS011;29809;52.432;4.780;2023-02-04T06:04:36;2.78;;;1.42;;
44145;SDS011;29809;52.432;4.780;2023-02-04T06:07:01;4.10;;;1.30;;
44145;SDS011;29809;52.432;4.780;2023-02-04T06:09:27;3.60;;;1.60;;
44145;SDS011;29809;52.432;4.780;2023-02-04T06:11:52;3.40;;;1.45;;
44145;SDS011;29809;52.432;4.780;2023-02-04T06:14:17;3.30;;;1.55;;
44145;SDS011;29809;52.432;4.780;2023-02-04T06:16:43;4.15;;;1.48;;
44145;SDS011;29809;52.432;4.780;2023-02-04T06:19:08;3.88;;;1.50;;
44145;SDS011;29809;52.432;4.780;2023-02-04T06:21:33;5.63;;;1.65;;
44145;SDS011;29809;52.432;4.780;2023-02-04T06:23:58;5.35;;;1.55;;
44145;SDS011;29809;52.432;4.780;2023-02-04T06:26:24;4.03;;;1.73;;
44145;SDS011;29809;52.432;4.780;2023-02-04T06:28:49;4.10;;;1.35;;
44145;SDS011;29809;52.432;4.780;2023-02-04T06:31:14;4.05;;;1.52;;
44145;SDS011;29809;52.432;4.780;2023-02-04T06:33:39;4.70;;;1.88;;
44145;SDS011;29809;52.432;4.780;2023-02-04T06:36:05;6.35;;;1.70;;
44145;SDS011;29809;52.432;4.780;2023-02-04T06:38:30;6.80;;;1.52;;
44145;SDS011;29809;52.432;4.780;2023-02-04T06:40:55;4.85;;;1.52;;
44145;SDS011;29809;52.432;4.780;2023-02-04T06:43:21;6.20;;;1.83;;
44145;SDS011;29809;52.432;4.780;2023-02-04T06:45:48;4.78;;;1.55;;
44145;SDS011;29809;52.432;4.780;2023-02-04T06:48:14;3.80;;;1.58;;
44145;SDS011;29809;52.432;4.780;2023-02-04T06:50:40;5.88;;;2.25;;
44145;SDS011;29809;52.432;4.780;2023-02-04T06:53:05;4.28;;;1.73;;
44145;SDS011;29809;52.432;4.780;2023-02-04T06:55:30;6.75;;;2.13;;
44145;SDS011;29809;52.432;4.780;2023-02-04T06:57:55;5.93;;;1.60;;
44145;SDS011;29809;52.432;4.780;2023-02-04T07:00:21;5.00;;;1.90;;
44145;SDS011;29809;52.432;4.780;2023-02-04T07:02:46;4.25;;;1.63;;
44145;SDS011;29809;52.432;4.780;2023-02-04T07:05:11;2.63;;;1.38;;
44145;SDS011;29809;52.432;4.780;2023-02-04T07:07:36;203.40;;;45.97;;
44145;SDS011;29809;52.432;4.780;2023-02-04T07:10:02;94.35;;;26.05;;
44145;SDS011;29809;52.432;4.780;2023-02-04T07:12:27;104.18;;;29.40;;
44145;SDS011;29809;52.432;4.780;2023-02-04T07:14:52;96.97;;;27.67;;
44145;SDS011;29809;52.432;4.780;2023-02-04T07:17:18;84.93;;;24.10;;
44145;SDS011;29809;52.432;4.780;2023-02-04T07:19:43;81.90;;;24.42;;
44145;SDS011;29809;52.432;4.780;2023-02-04T07:22:08;68.65;;;22.20;;
44145;SDS011;29809;52.432;4.780;2023-02-04T07:24:33;44.40;;;15.18;;
44145;SDS011;29809;52.432;4.780;2023-02-04T07:26:59;48.43;;;15.90;;
44145;SDS011;29809;52.432;4.780;2023-02-04T07:29:24;41.53;;;15.55;;
44145;SDS011;29809;52.432;4.780;2023-02-04T07:31:50;44.45;;;15.73;;
44145;SDS011;29809;52.432;4.780;2023-02-04T07:34:17;37.47;;;15.60;;
44145;SDS011;29809;52.432;4.780;2023-02-04T07:36:43;45.88;;;14.77;;
44145;SDS011;29809;52.432;4.780;2023-02-04T07:39:08;38.28;;;15.07;;
44145;SDS011;29809;52.432;4.780;2023-02-04T07:41:34;37.55;;;13.57;;
44145;SDS011;29809;52.432;4.780;2023-02-04T07:43:59;40.17;;;12.88;;
44145;SDS011;29809;52.432;4.780;2023-02-04T07:46:25;32.33;;;12.60;;
44145;SDS011;29809;52.432;4.780;2023-02-04T07:48:50;30.00;;;11.18;;
44145;SDS011;29809;52.432;4.780;2023-02-04T07:51:15;35.72;;;13.02;;
44145;SDS011;29809;52.432;4.780;2023-02-04T07:53:41;30.65;;;11.57;;
44145;SDS011;29809;52.432;4.780;2023-02-04T07:56:06;27.00;;;11.13;;
44145;SDS011;29809;52.432;4.780;2023-02-04T07:58:32;27.02;;;10.07;;
44145;SDS011;29809;52.432;4.780;2023-02-04T08:00:57;26.60;;;10.07;;
44145;SDS011;29809;52.432;4.780;2023-02-04T08:03:22;21.95;;;9.75;;
44145;SDS011;29809;52.432;4.780;2023-02-04T08:05:47;26.20;;;10.38;;
44145;SDS011;29809;52.432;4.780;2023-02-04T08:08:13;23.48;;;9.75;;
44145;SDS011;29809;52.432;4.780;2023-02-04T08:10:39;21.15;;;8.48;;
44145;SDS011;29809;52.432;4.780;2023-02-04T08:13:04;17.77;;;8.23;;
44145;SDS011;29809;52.432;4.780;2023-02-04T08:15:29;18.58;;;9.27;;
44145;SDS011;29809;52.432;4.780;2023-02-04T08:17:55;19.65;;;8.35;;
44145;SDS011;29809;52.432;4.780;2023-02-04T08:20:20;18.33;;;7.82;;
44145;SDS011;29809;52.432;4.780;2023-02-04T08:22:45;16.65;;;7.50;;
44145;SDS011;29809;52.432;4.780;2023-02-04T08:25:11;16.25;;;7.53;;
44145;SDS011;29809;52.432;4.780;2023-02-04T08:27:36;20.15;;;8.25;;
44145;SDS011;29809;52.432;4.780;2023-02-04T08:30:02;16.63;;;8.57;;
44145;SDS011;29809;52.432;4.780;2023-02-04T08:32:27;19.60;;;7.43;;
44145;SDS011;29809;52.432;4.780;2023-02-04T08:34:53;21.20;;;9.25;;
44145;SDS011;29809;52.432;4.780;2023-02-04T08:37:18;19.08;;;8.48;;
44145;SDS011;29809;52.432;4.780;2023-02-04T08:39:43;14.65;;;7.82;;
44145;SDS011;29809;52.432;4.780;2023-02-04T08:42:10;14.80;;;6.97;;
44145;SDS011;29809;52.432;4.780;2023-02-04T08:44:35;11.85;;;6.72;;
44145;SDS011;29809;52.432;4.780;2023-02-04T08:47:01;12.40;;;6.63;;
44145;SDS011;29809;52.432;4.780;2023-02-04T08:49:26;14.40;;;6.45;;
44145;SDS011;29809;52.432;4.780;2023-02-04T08:51:51;14.38;;;6.28;;
44145;SDS011;29809;52.432;4.780;2023-02-04T08:54:16;14.00;;;6.63;;
44145;SDS011;29809;52.432;4.780;2023-02-04T08:56:42;15.15;;;5.85;;
44145;SDS011;29809;52.432;4.780;2023-02-04T08:59:07;10.57;;;5.60;;
44145;SDS011;29809;52.432;4.780;2023-02-04T09:01:32;13.02;;;5.85;;
44145;SDS011;29809;52.432;4.780;2023-02-04T09:03:57;12.80;;;6.30;;
44145;SDS011;29809;52.432;4.780;2023-02-04T09:06:23;11.65;;;5.50;;
44145;SDS011;29809;52.432;4.780;2023-02-04T09:08:48;12.80;;;6.03;;
44145;SDS011;29809;52.432;4.780;2023-02-04T09:11:13;11.27;;;5.53;;
44145;SDS011;29809;52.432;4.780;2023-02-04T09:13:38;14.00;;;5.32;;
44145;SDS011;29809;52.432;4.780;2023-02-04T09:16:04;12.98;;;5.22;;
44145;SDS011;29809;52.432;4.780;2023-02-04T09:18:29;11.20;;;5.57;;
44145;SDS011;29809;52.432;4.780;2023-02-04T09:20:56;14.18;;;5.20;;
44145;SDS011;29809;52.432;4.780;2023-02-04T09:23:22;14.98;;;5.82;;
44145;SDS011;29809;52.432;4.780;2023-02-04T09:25:48;9.70;;;4.50;;
44145;SDS011;29809;52.432;4.780;2023-02-04T09:28:13;10.85;;;4.38;;
44145;SDS011;29809;52.432;4.780;2023-02-04T09:30:41;11.73;;;4.57;;
44145;SDS011;29809;52.432;4.780;2023-02-04T09:33:07;8.55;;;4.65;;
44145;SDS011;29809;52.432;4.780;2023-02-04T09:35:32;20.70;;;8.50;;
44145;SDS011;29809;52.432;4.780;2023-02-04T09:37:57;13.18;;;6.40;;
44145;SDS011;29809;52.432;4.780;2023-02-04T09:40:23;11.25;;;5.82;;
44145;SDS011;29809;52.432;4.780;2023-02-04T09:42:51;14.82;;;5.75;;
44145;SDS011;29809;52.432;4.780;2023-02-04T09:45:27;13.95;;;6.97;;
44145;SDS011;29809;52.432;4.780;2023-02-04T09:47:53;14.90;;;6.80;;
44145;SDS011;29809;52.432;4.780;2023-02-04T09:50:22;10.63;;;5.78;;
44145;SDS011;29809;52.432;4.780;2023-02-04T09:52:52;11.55;;;6.22;;
44145;SDS011;29809;52.432;4.780;2023-02-04T09:55:19;12.52;;;6.32;;
44145;SDS011;29809;52.432;4.780;2023-02-04T09:57:45;10.52;;;5.70;;
44145;SDS011;29809;52.432;4.780;2023-02-04T10:00:18;11.20;;;5.05;;
44145;SDS011;29809;52.432;4.780;2023-02-04T10:02:44;10.57;;;4.82;;
44145;SDS011;29809;52.432;4.780;2023-02-04T10:05:16;10.20;;;4.40;;
44145;SDS011;29809;52.432;4.780;2023-02-04T10:07:41;10.70;;;4.80;;
44145;SDS011;29809;52.432;4.780;2023-02-04T10:10:17;9.02;;;4.60;;
44145;SDS011;29809;52.432;4.780;2023-02-04T10:12:43;10.68;;;4.55;;
44145;SDS011;29809;52.432;4.780;2023-02-04T10:15:11;13.93;;;4.60;;
44145;SDS011;29809;52.432;4.780;2023-02-04T10:17:37;11.40;;;4.15;;
44145;SDS011;29809;52.432;4.780;2023-02-04T10:20:03;8.88;;;4.57;;
44145;SDS011;29809;52.432;4.780;2023-02-04T10:22:28;9.27;;;4.05;;
44145;SDS011;29809;52.432;4.780;2023-02-04T10:24:53;7.57;;;4.28;;
44145;SDS011;29809;52.432;4.780;2023-02-04T10:27:19;8.95;;;4.40;;
44145;SDS011;29809;52.432;4.780;2023-02-04T10:29:54;9.15;;;3.85;;
44145;SDS011;29809;52.432;4.780;2023-02-04T10:32:30;7.75;;;4.38;;
44145;SDS011;29809;52.432;4.780;2023-02-04T10:34:56;10.60;;;4.07;;
44145;SDS011;29809;52.432;4.780;2023-02-04T10:37:23;6.80;;;3.83;;
44145;SDS011;29809;52.432;4.780;2023-02-04T10:39:48;9.07;;;4.00;;
44145;SDS011;29809;52.432;4.780;2023-02-04T10:42:23;8.20;;;3.72;;
44145;SDS011;29809;52.432;4.780;2023-02-04T10:44:49;7.05;;;2.97;;
44145;SDS011;29809;52.432;4.780;2023-02-04T10:47:19;8.10;;;3.30;;
44145;SDS011;29809;52.432;4.780;2023-02-04T10:49:51;8.10;;;3.58;;
44145;SDS011;29809;52.432;4.780;2023-02-04T10:52:16;9.48;;;3.20;;
44145;SDS011;29809;52.432;4.780;2023-02-04T10:54:42;8.68;;;3.60;;
44145;SDS011;29809;52.432;4.780;2023-02-04T10:57:21;9.13;;;3.60;;
44145;SDS011;29809;52.432;4.780;2023-02-04T10:59:48;7.90;;;3.53;;
44145;SDS011;29809;52.432;4.780;2023-02-04T11:05:00;4.70;;;2.72;;
44145;SDS011;29809;52.432;4.780;2023-02-04T11:07:25;8.02;;;3.58;;
44145;SDS011;29809;52.432;4.780;2023-02-04T11:09:50;8.35;;;3.00;;
44145;SDS011;29809;52.432;4.780;2023-02-04T11:12:58;6.70;;;2.97;;
44145;SDS011;29809;52.432;4.780;2023-02-04T11:17:58;7.35;;;2.90;;
44145;SDS011;29809;52.432;4.780;2023-02-04T11:20:29;6.10;;;2.60;;
44145;SDS011;29809;52.432;4.780;2023-02-04T11:22:54;6.18;;;3.03;;
44145;SDS011;29809;52.432;4.780;2023-02-04T11:25:32;6.50;;;2.25;;
44145;SDS011;29809;52.432;4.780;2023-02-04T11:27:58;7.00;;;3.13;;
44145;SDS011;29809;52.432;4.780;2023-02-04T11:30:24;7.85;;;2.85;;
44145;SDS011;29809;52.432;4.780;2023-02-04T11:32:55;7.68;;;2.70;;
44145;SDS011;29809;52.432;4.780;2023-02-04T11:35:22;6.28;;;3.17;;
44145;SDS011;29809;52.432;4.780;2023-02-04T11:37:48;7.60;;;3.55;;
44145;SDS011;29809;52.432;4.780;2023-02-04T11:40:34;7.82;;;3.05;;
44145;SDS011;29809;52.432;4.780;2023-02-04T11:43:00;9.18;;;3.03;;
44145;SDS011;29809;52.432;4.780;2023-02-04T11:45:30;6.85;;;2.53;;
44145;SDS011;29809;52.432;4.780;2023-02-04T11:47:58;7.85;;;2.42;;
44145;SDS011;29809;52.432;4.780;2023-02-04T11:50:33;8.52;;;3.25;;
44145;SDS011;29809;52.432;4.780;2023-02-04T11:53:02;7.63;;;2.53;;
44145;SDS011;29809;52.432;4.780;2023-02-04T11:55:28;7.35;;;2.75;;
44145;SDS011;29809;52.432;4.780;2023-02-04T11:57:54;4.70;;;2.30;;
44145;SDS011;29809;52.432;4.780;2023-02-04T12:00:23;7.78;;;3.10;;
44145;SDS011;29809;52.432;4.780;2023-02-04T12:02:56;8.55;;;2.38;;
44145;SDS011;29809;52.432;4.780;2023-02-04T12:05:28;7.28;;;2.42;;
44145;SDS011;29809;52.432;4.780;2023-02-04T12:08:08;6.22;;;2.45;;
44145;SDS011;29809;52.432;4.780;2023-02-04T12:10:33;9.70;;;2.53;;
44145;SDS011;29809;52.432;4.780;2023-02-04T12:12:58;8.48;;;3.08;;
44145;SDS011;29809;52.432;4.780;2023-02-04T12:15:24;8.85;;;2.83;;
44145;SDS011;29809;52.432;4.780;2023-02-04T12:18:00;5.03;;;2.05;;
44145;SDS011;29809;52.432;4.780;2023-02-04T12:20:26;9.13;;;2.72;;
44145;SDS011;29809;52.432;4.780;2023-02-04T12:22:51;5.82;;;2.60;;
44145;SDS011;29809;52.432;4.780;2023-02-04T12:25:17;5.05;;;2.30;;
44145;SDS011;29809;52.432;4.780;2023-02-04T12:27:43;5.65;;;2.50;;
44145;SDS011;29809;52.432;4.780;2023-02-04T12:30:09;5.60;;;2.20;;
44145;SDS011;29809;52.432;4.780;2023-02-04T12:32:35;11.35;;;2.67;;
44145;SDS011;29809;52.432;4.780;2023-02-04T12:35:00;5.30;;;2.40;;
44145;SDS011;29809;52.432;4.780;2023-02-04T12:37:25;5.90;;;2.35;;
44145;SDS011;29809;52.432;4.780;2023-02-04T12:39:50;6.47;;;2.42;;
44145;SDS011;29809;52.432;4.780;2023-02-04T12:42:16;5.70;;;2.65;;
44145;SDS011;29809;52.432;4.780;2023-02-04T12:44:41;5.05;;;2.20;;
44145;SDS011;29809;52.432;4.780;2023-02-04T12:47:06;5.60;;;2.28;;
44145;SDS011;29809;52.432;4.780;2023-02-04T12:49:31;4.70;;;2.03;;
44145;SDS011;29809;52.432;4.780;2023-02-04T12:51:57;5.32;;;2.13;;
44145;SDS011;29809;52.432;4.780;2023-02-04T12:54:23;5.15;;;2.20;;
44145;SDS011;29809;52.432;4.780;2023-02-04T12:56:48;6.47;;;2.05;;
44145;SDS011;29809;52.432;4.780;2023-02-04T12:59:16;5.20;;;1.85;;
44145;SDS011;29809;52.432;4.780;2023-02-04T13:01:41;5.13;;;2.38;;
44145;SDS011;29809;52.432;4.780;2023-02-04T13:04:06;4.18;;;2.53;;
44145;SDS011;29809;52.432;4.780;2023-02-04T13:06:32;4.85;;;1.73;;
44145;SDS011;29809;52.432;4.780;2023-02-04T13:08:57;6.25;;;2.13;;
44145;SDS011;29809;52.432;4.780;2023-02-04T13:11:22;3.08;;;1.90;;
44145;SDS011;29809;52.432;4.780;2023-02-04T13:13:48;6.78;;;2.10;;
44145;SDS011;29809;52.432;4.780;2023-02-04T13:16:13;8.68;;;2.53;;
44145;SDS011;29809;52.432;4.780;2023-02-04T13:18:38;6.15;;;2.40;;
44145;SDS011;29809;52.432;4.780;2023-02-04T13:21:03;5.47;;;2.22;;
44145;SDS011;29809;52.432;4.780;2023-02-04T13:23:29;5.75;;;1.88;;
44145;SDS011;29809;52.432;4.780;2023-02-04T13:25:54;4.40;;;2.05;;
44145;SDS011;29809;52.432;4.780;2023-02-04T13:28:19;4.30;;;1.83;;
44145;SDS011;29809;52.432;4.780;2023-02-04T13:30:44;11.57;;;2.25;;
44145;SDS011;29809;52.432;4.780;2023-02-04T13:33:10;4.93;;;2.05;;
44145;SDS011;29809;52.432;4.780;2023-02-04T13:35:35;4.85;;;1.92;;
44145;SDS011;29809;52.432;4.780;2023-02-04T13:38:00;3.92;;;1.77;;
44145;SDS011;29809;52.432;4.780;2023-02-04T13:40:25;3.47;;;2.00;;
44145;SDS011;29809;52.432;4.780;2023-02-04T13:42:51;4.35;;;1.90;;
44145;SDS011;29809;52.432;4.780;2023-02-04T13:45:16;4.75;;;2.10;;
44145;SDS011;29809;52.432;4.780;2023-02-04T13:47:42;5.18;;;2.40;;
44145;SDS011;29809;52.432;4.780;2023-02-04T13:50:08;3.75;;;1.67;;
44145;SDS011;29809;52.432;4.780;2023-02-04T13:52:33;3.75;;;2.10;;
44145;SDS011;29809;52.432;4.780;2023-02-04T13:54:59;5.30;;;2.95;;
44145;SDS011;29809;52.432;4.780;2023-02-04T13:57:24;6.57;;;2.80;;
44145;SDS011;29809;52.432;4.780;2023-02-04T13:59:49;3.75;;;1.88;;
44145;SDS011;29809;52.432;4.780;2023-02-04T14:02:15;3.15;;;1.63;;
44145;SDS011;29809;52.432;4.780;2023-02-04T14:04:40;4.80;;;1.88;;
44145;SDS011;29809;52.432;4.780;2023-02-04T14:07:08;4.00;;;1.65;;
44145;SDS011;29809;52.432;4.780;2023-02-04T14:09:33;4.20;;;1.67;;
44145;SDS011;29809;52.432;4.780;2023-02-04T14:11:58;2.83;;;1.60;;
44145;SDS011;29809;52.432;4.780;2023-02-04T14:14:23;2.55;;;1.58;;
44145;SDS011;29809;52.432;4.780;2023-02-04T14:16:49;3.05;;;1.60;;
44145;SDS011;29809;52.432;4.780;2023-02-04T14:19:14;4.18;;;1.90;;
44145;SDS011;29809;52.432;4.780;2023-02-04T14:21:39;3.30;;;1.77;;
44145;SDS011;29809;52.432;4.780;2023-02-04T14:24:05;6.28;;;2.20;;
44145;SDS011;29809;52.432;4.780;2023-02-04T14:26:30;3.30;;;1.95;;
44145;SDS011;29809;52.432;4.780;2023-02-04T14:28:55;15.20;;;2.88;;
44145;SDS011;29809;52.432;4.780;2023-02-04T14:31:20;7.03;;;1.80;;
44145;SDS011;29809;52.432;4.780;2023-02-04T14:33:46;5.05;;;2.20;;
44145;SDS011;29809;52.432;4.780;2023-02-04T14:36:11;7.82;;;2.20;;
44145;SDS011;29809;52.432;4.780;2023-02-04T14:38:36;9.15;;;2.72;;
44145;SDS011;29809;52.432;4.780;2023-02-04T14:41:03;6.45;;;1.95;;
44145;SDS011;29809;52.432;4.780;2023-02-04T14:43:28;7.85;;;1.88;;